Preble, Indiana
Current Conditions -  °F | °C
As of 8:19 PM on Sunday 23 Nov 2014 (Local Time) from KFWA Reporting Station
Moderate Rain Moderate Rain  
Wind Chill: 50°   Ceiling: 1000
Heat Index: 50°   Visibility: 2.5mi
Dew Point: 49°   Wind: 10mph
Humidity: 96%   Direction: 120°ESE
Pressure: 29.38"   Gusts: NA
Location:  40.83°N, 85.01°W
Report Text: KFWA 240119Z 12009KT 2 1/2SM RA BR FEW007 BKN010 OVC014 10/09 A2938 RMK AO2 PRESFR P0009 T01000094
Loading
Personal Weather Stations






























Interactive Weather Map New forecast layout! Learn more

10-Day Weather Forecast

Advertisements
Track Severe Weather on mobile